Rowlett, Texas
Current Conditions -  °F | °C
As of 7:35 AM on Saturday 20 Dec 2014 (Local Time) from KF46 Reporting Station
Haze Haze  
Wind Chill: 41°   Ceiling: 200
Heat Index: 44°   Visibility: 4mi
Dew Point: 44°   Wind: 5mph
Humidity: 100%   Direction: 20°NNE
Pressure: 30.23"   Gusts: NA
Location:  32.9°N, 96.57°W
Report Text: KF46 201335Z AUTO 02004KT 4SM BR OVC002 07/07 A3023 RMK AO2 T00660066
Loading
Personal Weather Stations






























Interactive Weather Map New forecast layout! Learn more

10-Day Weather Forecast

Advertisements
Track Severe Weather on mobile